createdAt,value
2018-11-10T00:01:09.944Z,9.90
2018-11-10T00:03:37.432Z,9.90
2018-11-10T00:06:04.879Z,9.80
2018-11-10T00:08:32.307Z,9.90
2018-11-10T00:10:59.799Z,9.80
2018-11-10T00:13:27.235Z,9.80
2018-11-10T00:15:54.701Z,9.80
2018-11-10T00:18:22.111Z,9.70
2018-11-10T00:20:50.067Z,9.80
2018-11-10T00:23:18.444Z,9.80
2018-11-10T00:25:46.006Z,9.80
2018-11-10T00:28:13.593Z,9.60
2018-11-10T00:30:41.083Z,9.80
2018-11-10T00:33:08.631Z,9.80
2018-11-10T00:35:36.095Z,9.90
2018-11-10T00:38:04.022Z,9.80
2018-11-10T00:40:31.472Z,9.80
2018-11-10T00:42:58.930Z,9.90
2018-11-10T00:45:26.342Z,9.90
2018-11-10T00:47:53.820Z,9.80
2018-11-10T00:50:21.292Z,9.90
2018-11-10T00:52:48.943Z,9.80
2018-11-10T00:55:16.371Z,9.80
2018-11-10T00:57:43.834Z,9.80
2018-11-10T01:00:12.666Z,9.80
2018-11-10T01:02:41.004Z,9.80
2018-11-10T01:05:08.491Z,9.90
2018-11-10T01:07:36.334Z,9.80
2018-11-10T01:10:04.941Z,9.80
2018-11-10T01:12:32.386Z,9.70
2018-11-10T01:14:59.836Z,9.70
2018-11-10T01:17:27.246Z,9.70
2018-11-10T01:19:55.152Z,9.60
2018-11-10T01:22:22.584Z,9.60
2018-11-10T01:24:50.040Z,9.60
2018-11-10T01:27:17.554Z,9.60
2018-11-10T01:29:45.096Z,9.60
2018-11-10T01:32:12.808Z,9.30
2018-11-10T01:34:40.417Z,9.50
2018-11-10T01:37:08.870Z,9.50
2018-11-10T01:39:36.392Z,9.50
2018-11-10T01:42:04.002Z,9.40
2018-11-10T01:44:32.250Z,9.60
2018-11-10T01:46:59.741Z,9.50
2018-11-10T01:49:27.813Z,9.50
2018-11-10T01:51:55.293Z,9.50
2018-11-10T01:54:22.765Z,9.50
2018-11-10T01:56:50.243Z,9.60
2018-11-10T01:59:17.735Z,9.50
2018-11-10T02:01:45.170Z,9.50
2018-11-10T02:04:12.607Z,9.50
2018-11-10T02:06:40.072Z,9.50
2018-11-10T02:09:08.544Z,9.50
2018-11-10T02:11:36.051Z,9.50
2018-11-10T02:14:03.566Z,9.50
2018-11-10T02:16:31.070Z,9.50
2018-11-10T02:18:58.835Z,9.90
2018-11-10T02:21:26.363Z,9.50
2018-11-10T02:23:53.942Z,9.50
2018-11-10T02:26:21.458Z,9.50
2018-11-10T02:28:49.101Z,9.50
2018-11-10T02:31:16.546Z,9.50
2018-11-10T02:33:44.280Z,9.50
2018-11-10T02:36:12.853Z,9.40
2018-11-10T02:38:40.421Z,9.50
2018-11-10T02:41:07.930Z,9.60
2018-11-10T02:43:35.342Z,9.50
2018-11-10T02:46:02.709Z,9.40
2018-11-10T02:48:30.112Z,9.40
2018-11-10T02:50:57.837Z,9.40
2018-11-10T02:53:25.254Z,9.50
2018-11-10T02:55:52.826Z,9.50
2018-11-10T02:58:20.238Z,9.50
2018-11-10T03:00:47.836Z,9.50
2018-11-10T03:03:15.402Z,9.50
2018-11-10T03:05:42.847Z,9.50
2018-11-10T03:08:10.312Z,9.60
2018-11-10T03:10:37.784Z,9.60
2018-11-10T03:13:05.427Z,9.50
2018-11-10T03:15:32.937Z,9.60
2018-11-10T03:18:00.295Z,9.50
2018-11-10T03:20:27.710Z,9.60
2018-11-10T03:22:55.130Z,9.60
2018-11-10T03:25:22.559Z,9.50
2018-11-10T03:27:50.018Z,9.50
2018-11-10T03:30:17.478Z,9.60
2018-11-10T03:32:44.930Z,9.60
2018-11-10T03:35:12.396Z,9.60
2018-11-10T03:37:40.361Z,9.50
2018-11-10T03:40:09.823Z,9.60
2018-11-10T03:42:37.904Z,9.50
2018-11-10T03:45:06.448Z,9.50
2018-11-10T03:47:33.911Z,9.50
2018-11-10T03:50:01.329Z,9.60
2018-11-10T03:52:28.805Z,9.60
2018-11-10T03:54:56.226Z,9.60
2018-11-10T03:57:23.625Z,9.60
2018-11-10T03:59:51.028Z,9.60
2018-11-10T04:02:18.628Z,9.60
2018-11-10T04:04:46.099Z,9.60
2018-11-10T04:07:13.663Z,9.60
2018-11-10T04:09:41.151Z,9.60
2018-11-10T04:12:09.059Z,9.70
2018-11-10T04:14:36.587Z,9.70
2018-11-10T04:17:04.010Z,9.70
2018-11-10T04:19:31.437Z,9.60
2018-11-10T04:21:58.874Z,9.60
2018-11-10T04:24:26.300Z,9.60
2018-11-10T04:26:53.777Z,9.60
2018-11-10T04:29:21.386Z,9.60
2018-11-10T04:31:48.827Z,9.60
2018-11-10T04:34:16.282Z,9.60
2018-11-10T04:36:43.740Z,9.60
2018-11-10T04:39:11.602Z,9.70
2018-11-10T04:41:39.049Z,9.60
2018-11-10T04:44:06.504Z,9.60
2018-11-10T04:46:33.975Z,9.60
2018-11-10T04:49:01.472Z,9.60
2018-11-10T04:51:28.947Z,9.60
2018-11-10T04:53:56.403Z,9.60
2018-11-10T04:56:23.860Z,9.50
2018-11-10T04:58:51.329Z,9.50
2018-11-10T05:01:18.894Z,9.60
2018-11-10T05:03:46.286Z,9.60
2018-11-10T05:06:14.048Z,9.60
2018-11-10T05:08:41.560Z,9.50
2018-11-10T05:11:09.013Z,9.50
2018-11-10T05:13:36.434Z,9.50
2018-11-10T05:16:03.918Z,9.60
2018-11-10T05:18:31.383Z,9.50
2018-11-10T05:20:58.973Z,9.50
2018-11-10T05:23:26.447Z,9.50
2018-11-10T05:25:58.230Z,9.50
2018-11-10T05:28:25.666Z,9.50
2018-11-10T05:30:53.199Z,9.50
2018-11-10T05:33:20.654Z,9.50
2018-11-10T05:35:48.148Z,9.50
2018-11-10T05:38:15.983Z,9.50
2018-11-10T05:40:43.391Z,9.60
2018-11-10T05:43:10.879Z,9.60
2018-11-10T05:45:38.325Z,9.60
2018-11-10T05:48:05.910Z,9.60
2018-11-10T05:50:33.335Z,9.70
2018-11-10T05:53:00.850Z,9.60
2018-11-10T05:55:28.261Z,9.70
2018-11-10T05:57:55.795Z,9.60
2018-11-10T06:00:23.265Z,9.60
2018-11-10T06:02:50.695Z,9.60
2018-11-10T06:05:18.327Z,9.60
2018-11-10T06:07:45.731Z,9.60
2018-11-10T06:10:13.281Z,9.50
2018-11-10T06:12:41.158Z,9.50
2018-11-10T06:15:09.082Z,9.60
2018-11-10T06:17:36.612Z,9.60
2018-11-10T06:20:05.412Z,9.60
2018-11-10T06:22:32.949Z,9.60
2018-11-10T06:25:00.457Z,9.60
2018-11-10T06:27:27.946Z,9.60
2018-11-10T06:29:55.408Z,9.50
2018-11-10T06:32:22.839Z,9.60
2018-11-10T06:34:50.233Z,9.60
2018-11-10T06:37:17.735Z,9.70
2018-11-10T06:39:45.223Z,9.60
2018-11-10T06:42:12.644Z,9.60
2018-11-10T06:44:40.217Z,9.70
2018-11-10T06:47:08.353Z,9.60
2018-11-10T06:49:35.795Z,9.70
2018-11-10T06:52:03.334Z,9.60
2018-11-10T06:54:30.771Z,9.50
2018-11-10T06:56:58.187Z,9.60
2018-11-10T06:59:25.656Z,9.60
2018-11-10T07:01:53.080Z,9.70
2018-11-10T07:04:20.467Z,9.60
2018-11-10T07:06:48.110Z,9.70
2018-11-10T07:09:15.607Z,9.70
2018-11-10T07:11:42.986Z,9.70
2018-11-10T07:14:10.432Z,9.70
2018-11-10T07:16:37.920Z,9.80
2018-11-10T07:19:05.497Z,9.70
2018-11-10T07:21:33.011Z,9.70
2018-11-10T07:24:00.423Z,9.70
2018-11-10T07:26:27.979Z,9.70
2018-11-10T07:28:57.177Z,9.70
2018-11-10T07:31:25.093Z,9.80
2018-11-10T07:33:52.679Z,9.70
2018-11-10T07:36:20.611Z,9.70
2018-11-10T07:38:49.017Z,9.80
2018-11-10T07:41:17.823Z,9.70
2018-11-10T07:43:46.529Z,9.70
2018-11-10T07:46:14.320Z,9.80
2018-11-10T07:48:42.585Z,9.90
2018-11-10T07:51:10.436Z,9.90
2018-11-10T07:53:42.306Z,10.00
2018-11-10T07:56:10.042Z,9.90
2018-11-10T07:58:37.739Z,9.90
2018-11-10T08:01:05.694Z,10.00
2018-11-10T08:03:33.256Z,10.00
2018-11-10T08:06:00.982Z,10.00
2018-11-10T08:08:29.216Z,10.00
2018-11-10T08:11:02.625Z,10.10
2018-11-10T08:13:31.529Z,10.10
2018-11-10T08:15:59.119Z,10.10
2018-11-10T08:18:27.444Z,10.10
2018-11-10T08:20:55.347Z,10.10
2018-11-10T08:23:22.898Z,10.10
2018-11-10T08:25:51.103Z,10.10
2018-11-10T08:28:18.620Z,10.00
2018-11-10T08:30:46.223Z,10.10
2018-11-10T08:33:14.816Z,10.10
2018-11-10T08:35:42.433Z,10.10
2018-11-10T08:38:10.840Z,10.10
2018-11-10T08:40:40.881Z,10.10
2018-11-10T08:43:09.042Z,10.10
2018-11-10T08:45:36.914Z,10.10
2018-11-10T08:48:04.820Z,10.10
2018-11-10T08:50:33.930Z,10.20
2018-11-10T08:53:01.718Z,10.20
2018-11-10T08:55:30.603Z,10.20
2018-11-10T08:57:58.216Z,10.20
2018-11-10T09:00:25.991Z,10.40
2018-11-10T09:02:58.812Z,10.20
2018-11-10T09:05:27.031Z,10.20
2018-11-10T09:07:54.753Z,10.30
2018-11-10T09:10:22.790Z,10.30
2018-11-10T09:12:52.789Z,10.30
2018-11-10T09:15:20.744Z,10.20
2018-11-10T09:17:49.129Z,10.30
2018-11-10T09:20:19.187Z,10.30
2018-11-10T09:22:51.315Z,10.40
2018-11-10T09:25:19.854Z,10.40
2018-11-10T09:27:48.093Z,10.50
2018-11-10T09:30:17.326Z,10.50
2018-11-10T09:32:45.959Z,10.50
2018-11-10T09:35:14.500Z,10.50
2018-11-10T09:37:47.431Z,10.60
2018-11-10T09:40:19.325Z,10.60
2018-11-10T09:42:50.063Z,10.70
2018-11-10T09:45:17.968Z,10.80
2018-11-10T09:47:46.508Z,10.80
2018-11-10T09:50:18.875Z,10.90
2018-11-10T09:52:47.179Z,11.00
2018-11-10T09:55:16.091Z,11.00
2018-11-10T09:57:45.199Z,11.10
2018-11-10T10:00:18.463Z,11.10
2018-11-10T10:02:47.126Z,11.10
2018-11-10T10:05:14.851Z,11.30
2018-11-10T10:07:44.645Z,11.30
2018-11-10T10:10:14.940Z,11.30
2018-11-10T10:12:44.338Z,11.30
2018-11-10T10:15:13.567Z,11.40
2018-11-10T10:17:49.516Z,11.40
2018-11-10T10:20:18.266Z,11.50
2018-11-10T10:22:47.273Z,11.40
2018-11-10T10:25:15.937Z,11.50
2018-11-10T10:27:48.071Z,11.50
2018-11-10T10:30:22.385Z,11.60
2018-11-10T10:32:51.634Z,11.60
2018-11-10T10:35:20.628Z,11.70
2018-11-10T10:37:48.897Z,11.70
2018-11-10T10:40:17.518Z,11.80
2018-11-10T10:42:45.552Z,11.80
2018-11-10T10:45:17.120Z,11.80
2018-11-10T10:47:46.135Z,11.80
2018-11-10T10:50:16.114Z,11.90
2018-11-10T10:52:43.663Z,11.90
2018-11-10T10:55:14.292Z,11.90
2018-11-10T10:57:43.906Z,11.90
2018-11-10T11:00:18.583Z,11.90
2018-11-10T11:02:52.203Z,12.00
2018-11-10T11:05:26.101Z,12.00
2018-11-10T11:07:55.574Z,12.00
2018-11-10T11:10:23.548Z,12.10
2018-11-10T11:12:52.471Z,12.10
2018-11-10T11:15:20.970Z,12.00
2018-11-10T11:17:49.161Z,12.10
2018-11-10T11:20:19.617Z,12.00
2018-11-10T11:22:47.995Z,12.00
2018-11-10T11:25:15.658Z,12.00
2018-11-10T11:27:43.222Z,12.00
2018-11-10T11:30:11.146Z,12.00
2018-11-10T11:32:42.467Z,12.10
2018-11-10T11:35:13.795Z,12.20
2018-11-10T11:37:42.396Z,12.10
2018-11-10T11:40:12.526Z,12.10
2018-11-10T11:42:42.535Z,12.10
2018-11-10T11:45:11.477Z,12.20
2018-11-10T11:47:39.594Z,12.20
2018-11-10T11:50:09.641Z,12.40
2018-11-10T11:52:38.404Z,12.40
2018-11-10T11:55:06.740Z,12.50
2018-11-10T11:57:34.487Z,12.50
2018-11-10T12:00:03.112Z,12.50
2018-11-10T12:02:31.741Z,12.60
2018-11-10T12:05:00.011Z,12.70
2018-11-10T12:07:29.259Z,12.80
2018-11-10T12:09:56.973Z,12.80
2018-11-10T12:12:27.693Z,12.90
2018-11-10T12:14:56.279Z,12.90
2018-11-10T12:17:28.130Z,12.90
2018-11-10T12:19:57.467Z,12.80
2018-11-10T12:22:25.152Z,12.80
2018-11-10T12:24:53.391Z,12.80
2018-11-10T12:27:21.365Z,12.90
2018-11-10T12:29:49.440Z,12.90
2018-11-10T12:32:17.058Z,12.80
2018-11-10T12:34:44.810Z,13.00
2018-11-10T12:37:12.621Z,13.10
2018-11-10T12:39:40.189Z,13.10
2018-11-10T12:42:08.442Z,13.20
2018-11-10T12:44:35.907Z,13.20
2018-11-10T12:47:03.592Z,13.30
2018-11-10T12:49:31.171Z,13.20
2018-11-10T12:51:58.790Z,13.30
2018-11-10T12:54:26.538Z,13.20
2018-11-10T12:56:54.876Z,13.20
2018-11-10T12:59:23.179Z,13.20
2018-11-10T13:01:51.713Z,13.30
2018-11-10T13:04:19.236Z,13.20
2018-11-10T13:06:46.982Z,13.30
2018-11-10T13:09:15.677Z,13.20
2018-11-10T13:11:43.673Z,13.10
2018-11-10T13:14:11.206Z,13.20
2018-11-10T13:16:39.083Z,13.20
2018-11-10T13:19:08.107Z,13.20
2018-11-10T13:21:36.768Z,13.30
2018-11-10T13:24:07.039Z,13.20
2018-11-10T13:26:35.351Z,13.20
2018-11-10T13:29:03.623Z,13.10
2018-11-10T13:31:31.902Z,13.20
2018-11-10T13:34:00.725Z,13.20
2018-11-10T13:36:28.750Z,13.20
2018-11-10T13:38:56.743Z,13.20
2018-11-10T13:41:26.634Z,13.20
2018-11-10T13:43:54.341Z,13.20
2018-11-10T13:46:26.485Z,13.20
2018-11-10T13:48:54.523Z,13.20
2018-11-10T13:51:22.335Z,13.20
2018-11-10T13:53:50.583Z,13.20
2018-11-10T13:56:18.154Z,13.20
2018-11-10T13:58:47.115Z,13.20
2018-11-10T14:01:19.485Z,13.10
2018-11-10T14:03:52.784Z,13.10
2018-11-10T14:06:21.275Z,13.10
2018-11-10T14:08:48.982Z,13.00
2018-11-10T14:11:17.861Z,12.90
2018-11-10T14:13:45.424Z,13.00
2018-11-10T14:16:14.137Z,12.90
2018-11-10T14:18:42.000Z,12.90
2018-11-10T14:21:10.290Z,12.90
2018-11-10T14:23:45.668Z,12.80
2018-11-10T14:26:13.293Z,12.80
2018-11-10T14:28:41.600Z,12.80
2018-11-10T14:31:10.448Z,12.80
2018-11-10T14:33:44.282Z,12.80
2018-11-10T14:36:13.422Z,12.80
2018-11-10T14:38:41.531Z,12.70
2018-11-10T14:41:09.211Z,12.70
2018-11-10T14:43:36.767Z,12.70
2018-11-10T14:46:04.460Z,12.70
2018-11-10T14:48:32.696Z,12.60
2018-11-10T14:51:06.454Z,12.70
2018-11-10T14:53:38.615Z,12.70
2018-11-10T14:56:06.422Z,12.60
2018-11-10T14:58:35.493Z,12.60
2018-11-10T15:01:04.737Z,12.60
2018-11-10T15:03:32.685Z,12.60
2018-11-10T15:06:00.349Z,12.60
2018-11-10T15:08:28.592Z,12.50
2018-11-10T15:10:56.136Z,12.50
2018-11-10T15:13:25.922Z,12.50
2018-11-10T15:15:54.261Z,12.50
2018-11-10T15:18:22.065Z,12.50
2018-11-10T15:20:49.650Z,12.50
2018-11-10T15:23:18.265Z,12.50
2018-11-10T15:25:45.943Z,12.50
2018-11-10T15:28:21.635Z,12.50
2018-11-10T15:30:49.268Z,12.50
2018-11-10T15:33:17.962Z,12.30
2018-11-10T15:35:45.599Z,12.50
2018-11-10T15:38:19.203Z,12.40
2018-11-10T15:40:46.848Z,12.40
2018-11-10T15:43:14.410Z,12.50
2018-11-10T15:45:48.713Z,12.40
2018-11-10T15:48:17.719Z,12.40
2018-11-10T15:50:45.888Z,12.40
2018-11-10T15:53:14.393Z,12.40
2018-11-10T15:55:43.998Z,12.40
2018-11-10T15:58:11.902Z,12.40
2018-11-10T16:00:39.900Z,12.40
2018-11-10T16:03:09.014Z,12.60
2018-11-10T16:05:37.284Z,12.40
2018-11-10T16:08:06.440Z,12.40
2018-11-10T16:10:34.745Z,12.40
2018-11-10T16:13:03.347Z,12.40
2018-11-10T16:15:31.394Z,12.40
2018-11-10T16:18:00.495Z,12.40
2018-11-10T16:20:28.636Z,12.40
2018-11-10T16:23:00.134Z,12.40
2018-11-10T16:25:33.033Z,12.40
2018-11-10T16:28:01.280Z,12.40
2018-11-10T16:30:28.776Z,12.40
2018-11-10T16:32:57.123Z,12.40
2018-11-10T16:35:25.053Z,12.40
2018-11-10T16:37:53.141Z,12.40
2018-11-10T16:40:20.804Z,12.50
2018-11-10T16:42:49.406Z,12.40
2018-11-10T16:45:22.087Z,12.50
2018-11-10T16:47:50.463Z,12.60
2018-11-10T16:52:58.826Z,12.50
2018-11-10T16:55:28.115Z,12.60
2018-11-10T16:57:57.288Z,12.60
2018-11-10T17:00:30.922Z,12.60
2018-11-10T17:02:59.508Z,12.60
2018-11-10T17:05:31.162Z,12.70
2018-11-10T17:07:59.383Z,12.70
2018-11-10T17:10:26.999Z,12.70
2018-11-10T17:12:54.738Z,12.80
2018-11-10T17:15:27.511Z,12.80
2018-11-10T17:17:55.555Z,12.80
2018-11-10T17:20:23.438Z,12.80
2018-11-10T17:22:51.306Z,12.80
2018-11-10T17:25:19.037Z,12.80
2018-11-10T17:27:46.764Z,12.80
2018-11-10T17:30:20.645Z,12.90
2018-11-10T17:32:48.806Z,12.90
2018-11-10T17:35:16.711Z,13.10
2018-11-10T17:37:49.840Z,13.00
2018-11-10T17:40:17.642Z,13.00
2018-11-10T17:42:45.660Z,13.00
2018-11-10T17:45:14.458Z,13.00
2018-11-10T17:47:46.568Z,13.00
2018-11-10T17:50:16.212Z,13.00
2018-11-10T17:52:44.681Z,13.00
2018-11-10T17:55:13.472Z,13.00
2018-11-10T17:57:45.882Z,13.10
2018-11-10T18:00:19.538Z,13.10
2018-11-10T18:02:47.110Z,13.10
2018-11-10T18:05:17.514Z,13.10
2018-11-10T18:07:45.517Z,13.10
2018-11-10T18:10:15.978Z,13.10
2018-11-10T18:12:44.347Z,12.90
2018-11-10T18:15:12.641Z,13.10
2018-11-10T18:17:44.687Z,13.00
2018-11-10T18:20:15.125Z,13.10
2018-11-10T18:22:43.565Z,13.10
2018-11-10T18:25:11.311Z,13.00
2018-11-10T18:27:43.071Z,13.10
2018-11-10T18:30:12.887Z,13.00
2018-11-10T18:32:40.830Z,13.00
2018-11-10T18:35:09.928Z,13.10
2018-11-10T18:37:37.627Z,13.00
2018-11-10T18:40:07.634Z,13.00
2018-11-10T18:42:38.192Z,13.00
2018-11-10T18:45:07.335Z,13.00
2018-11-10T18:47:35.951Z,12.90
2018-11-10T18:50:06.044Z,12.90
2018-11-10T18:52:34.648Z,12.90
2018-11-10T18:55:02.358Z,13.20
2018-11-10T18:57:30.241Z,12.90
2018-11-10T18:59:58.696Z,12.90
2018-11-10T19:02:26.389Z,12.90
2018-11-10T19:04:58.312Z,12.70
2018-11-10T19:07:27.704Z,12.80
2018-11-10T19:09:56.260Z,12.80
2018-11-10T19:12:24.379Z,12.80
2018-11-10T19:14:52.839Z,12.80
2018-11-10T19:17:20.416Z,12.80
2018-11-10T19:19:48.607Z,12.70
2018-11-10T19:22:16.211Z,12.70
2018-11-10T19:24:44.577Z,12.70
2018-11-10T19:27:13.365Z,12.80
2018-11-10T19:29:41.016Z,12.80
2018-11-10T19:32:08.689Z,12.60
2018-11-10T19:34:36.500Z,12.70
2018-11-10T19:37:04.639Z,12.70
2018-11-10T19:39:32.791Z,12.80
2018-11-10T19:42:00.577Z,12.80
2018-11-10T19:44:28.405Z,12.80
2018-11-10T19:47:01.114Z,12.80
2018-11-10T19:49:29.954Z,12.80
2018-11-10T19:51:58.000Z,12.80
2018-11-10T19:54:26.713Z,12.90
2018-11-10T19:56:54.346Z,12.80
2018-11-10T19:59:24.156Z,12.70
2018-11-10T20:01:51.972Z,12.70
2018-11-10T20:04:19.870Z,12.70
2018-11-10T20:06:48.628Z,12.70
2018-11-10T20:09:21.090Z,12.60
2018-11-10T20:11:49.530Z,12.60
2018-11-10T20:14:19.197Z,12.60
2018-11-10T20:16:46.841Z,12.50
2018-11-10T20:19:15.346Z,12.70
2018-11-10T20:21:44.137Z,12.60
2018-11-10T20:24:16.050Z,12.60
2018-11-10T20:26:43.717Z,12.60
2018-11-10T20:29:12.890Z,12.60
2018-11-10T20:31:40.968Z,12.50
2018-11-10T20:34:13.836Z,12.50
2018-11-10T20:36:42.039Z,12.50
2018-11-10T20:39:10.623Z,12.50
2018-11-10T20:41:38.920Z,12.50
2018-11-10T20:44:08.878Z,12.60
2018-11-10T20:46:40.471Z,12.40
2018-11-10T20:49:08.298Z,12.40
2018-11-10T20:51:37.135Z,12.50
2018-11-10T20:54:05.190Z,12.40
2018-11-10T20:56:33.349Z,12.40
2018-11-10T20:59:01.109Z,12.50
2018-11-10T21:01:28.745Z,12.40
2018-11-10T21:03:56.680Z,12.50
2018-11-10T21:06:28.599Z,12.50
2018-11-10T21:08:56.401Z,12.50
2018-11-10T21:11:24.622Z,12.40
2018-11-10T21:13:52.350Z,12.50
2018-11-10T21:16:22.362Z,12.40
2018-11-10T21:18:51.033Z,12.50
2018-11-10T21:21:19.075Z,12.50
2018-11-10T21:23:48.112Z,12.50
2018-11-10T21:26:17.312Z,12.50
2018-11-10T21:28:46.089Z,12.50
2018-11-10T21:31:13.968Z,12.50
2018-11-10T21:33:41.800Z,12.60
2018-11-10T21:36:09.448Z,12.60
2018-11-10T21:38:37.106Z,12.60
2018-11-10T21:41:05.724Z,12.60
2018-11-10T21:43:33.336Z,12.60
2018-11-10T21:46:00.779Z,12.60
2018-11-10T21:48:28.312Z,12.60
2018-11-10T21:50:55.907Z,12.70
2018-11-10T21:53:23.752Z,12.60
2018-11-10T21:55:51.306Z,12.60
2018-11-10T21:58:18.871Z,12.70
2018-11-10T22:00:46.397Z,12.60
2018-11-10T22:03:13.918Z,12.70
2018-11-10T22:05:41.455Z,12.70
2018-11-10T22:08:08.962Z,12.70
2018-11-10T22:10:36.488Z,12.70
2018-11-10T22:13:04.331Z,12.70
2018-11-10T22:15:31.895Z,12.70
2018-11-10T22:17:59.341Z,12.70
2018-11-10T22:20:26.855Z,12.70
2018-11-10T22:22:54.379Z,12.70
2018-11-10T22:25:21.812Z,12.70
2018-11-10T22:27:50.714Z,12.70
2018-11-10T22:30:19.115Z,12.70
2018-11-10T22:32:47.121Z,12.70
2018-11-10T22:35:14.754Z,12.70
2018-11-10T22:37:42.217Z,12.60
2018-11-10T22:40:12.318Z,12.70
2018-11-10T22:42:40.624Z,12.60
2018-11-10T22:45:09.896Z,12.70
2018-11-10T22:47:37.968Z,12.70
2018-11-10T22:50:07.627Z,12.70
2018-11-10T22:52:35.253Z,12.90
2018-11-10T22:55:02.827Z,12.70
2018-11-10T22:57:30.332Z,12.70
2018-11-10T22:59:57.819Z,12.60
2018-11-10T23:02:25.280Z,12.70
2018-11-10T23:04:52.737Z,12.60
2018-11-10T23:07:20.233Z,12.70
2018-11-10T23:09:48.369Z,12.60
2018-11-10T23:12:15.843Z,12.70
2018-11-10T23:14:43.825Z,12.70
2018-11-10T23:17:11.464Z,12.70
2018-11-10T23:19:38.852Z,12.70
2018-11-10T23:22:06.382Z,12.70
2018-11-10T23:24:34.030Z,12.60
2018-11-10T23:27:01.551Z,12.60
2018-11-10T23:29:29.031Z,12.60
2018-11-10T23:31:56.609Z,12.60
2018-11-10T23:34:24.182Z,12.50
2018-11-10T23:36:51.692Z,12.50
2018-11-10T23:39:19.270Z,12.50
2018-11-10T23:41:47.704Z,12.50
2018-11-10T23:44:15.188Z,12.40
2018-11-10T23:46:42.665Z,12.70
2018-11-10T23:49:10.818Z,12.40
2018-11-10T23:51:38.345Z,12.40
2018-11-10T23:54:05.978Z,12.30
2018-11-10T23:56:33.495Z,12.30
2018-11-10T23:59:00.975Z,11.90
